Time;durP1;ratioP1;P1;durP2;ratioP2;P2;SDS_P1;SDS_P2;PMS_P1;PMS_P2;Temp;Humidity;BMP_temperature;BMP_pressure;BME280_temperature;BME280_humidity;BME280_pressure;Samples;Min_cycle;Max_cycle;Signal;HPM_P1;HPM_P2
2024/03/05 00:06:18;;;;;;;5.70;0.90;;;2.70;99.90;;;;;;20883583;28;20222;-40
2024/03/05 00:16:20;;;;;;;4.88;0.73;;;2.30;99.90;;;;;;20881605;28;20177;-40
2024/03/05 00:26:25;;;;;;;4.47;0.70;;;2.10;99.90;;;;;;20877762;28;20673;-39
2024/03/05 00:36:28;;;;;;;6.47;0.90;;;1.90;99.90;;;;;;20858520;28;20244;-48
2024/03/05 00:46:32;;;;;;;7.78;0.60;;;2.00;99.90;;;;;;20875968;28;20131;-40
2024/03/05 00:56:34;;;;;;;2.92;0.63;;;1.90;99.90;;;;;;20874673;28;20174;-39
2024/03/05 01:06:36;;;;;;;2.80;0.85;;;1.80;99.90;;;;;;20878038;28;21183;-39
2024/03/05 01:16:37;;;;;;;8.82;0.90;;;1.70;99.90;;;;;;20877817;28;20847;-39
2024/03/05 01:26:39;;;;;;;8.65;0.80;;;1.70;99.90;;;;;;20855458;28;20071;-38
2024/03/05 01:36:41;;;;;;;6.13;0.60;;;1.60;99.90;;;;;;20870470;28;20875;-40
2024/03/05 01:46:46;;;;;;;5.35;0.60;;;1.70;99.90;;;;;;20873582;28;21190;-39
2024/03/05 01:56:52;;;;;;;7.47;0.70;;;1.50;99.90;;;;;;20871216;28;20188;-40
2024/03/05 02:06:56;;;;;;;7.85;0.93;;;1.40;99.90;;;;;;20870880;28;20233;-44
2024/03/05 02:17:00;;;;;;;5.95;1.00;;;1.40;99.90;;;;;;20870027;28;20166;-40
2024/03/05 02:27:07;;;;;;;3.78;0.70;;;1.40;99.90;;;;;;20871453;28;20123;-40
2024/03/05 02:37:11;;;;;;;10.13;1.30;;;1.40;99.90;;;;;;20870832;28;20114;-39
2024/03/05 02:47:13;;;;;;;5.38;0.93;;;1.40;99.90;;;;;;20865757;28;20716;-40
2024/03/05 02:57:15;;;;;;;5.97;0.50;;;1.40;99.90;;;;;;20866733;28;20245;-40
2024/03/05 03:07:20;;;;;;;4.32;0.57;;;1.40;99.90;;;;;;20869772;28;20067;-39
2024/03/05 03:17:22;;;;;;;11.68;1.02;;;1.30;99.90;;;;;;20865877;28;20063;-40
2024/03/05 03:27:24;;;;;;;6.13;0.73;;;1.20;99.90;;;;;;20847244;28;20169;-40
2024/03/05 03:37:28;;;;;;;10.30;1.10;;;1.30;99.90;;;;;;20867270;28;20130;-40
2024/03/05 03:47:30;;;;;;;8.00;0.80;;;1.20;99.90;;;;;;20865898;28;21228;-39
2024/03/05 03:57:32;;;;;;;8.30;0.80;;;1.30;99.90;;;;;;20868017;28;20701;-40
2024/03/05 04:07:34;;;;;;;8.30;1.30;;;1.20;99.90;;;;;;20878879;28;20224;-40
2024/03/05 04:17:38;;;;;;;6.90;0.70;;;1.20;99.90;;;;;;20875109;28;20123;-40
2024/03/05 04:27:46;;;;;;;11.73;0.82;;;1.20;99.90;;;;;;20874500;28;20468;-40
2024/03/05 04:37:50;;;;;;;10.05;1.00;;;1.30;99.90;;;;;;20881278;28;21295;-39
2024/03/05 04:47:52;;;;;;;10.57;0.85;;;1.20;99.90;;;;;;20876386;28;20154;-40
2024/03/05 04:57:53;;;;;;;6.72;1.00;;;1.20;99.90;;;;;;20876138;28;20162;-39
2024/03/05 05:08:04;;;;;;;6.43;0.95;;;1.20;99.90;;;;;;20874560;28;20122;-39
2024/03/05 05:18:06;;;;;;;3.63;0.75;;;1.20;99.90;;;;;;20872451;28;20122;-40
2024/03/05 05:28:08;;;;;;;5.30;0.80;;;1.30;99.90;;;;;;20873192;28;20150;-40
2024/03/05 05:38:11;;;;;;;8.65;0.90;;;1.20;99.90;;;;;;20870024;28;20268;-41
2024/03/05 05:48:23;;;;;;;3.63;0.85;;;1.20;99.90;;;;;;20856648;28;20118;-39
2024/03/05 05:58:25;;;;;;;7.82;1.02;;;1.20;99.90;;;;;;20855393;28;20173;-40
2024/03/05 06:08:27;;;;;;;8.95;0.68;;;1.30;99.90;;;;;;20874254;28;20110;-40
2024/03/05 06:18:30;;;;;;;6.15;0.70;;;1.50;99.90;;;;;;20599732;28;20212;-40
2024/03/05 06:28:32;;;;;;;6.72;1.02;;;1.50;99.90;;;;;;20579122;28;20211;-45
2024/03/05 06:38:37;;;;;;;6.95;0.88;;;1.70;99.90;;;;;;20599735;28;20924;-41
2024/03/05 06:48:47;;;;;;;3.88;0.70;;;1.90;99.90;;;;;;20617984;28;20138;-42
2024/03/05 06:58:53;;;;;;;3.13;0.70;;;2.10;99.90;;;;;;20866248;28;20249;-40
2024/03/05 07:08:56;;;;;;;3.30;0.47;;;2.20;99.90;;;;;;20868032;28;20938;-40
2024/03/05 07:18:59;;;;;;;5.72;0.80;;;2.70;99.90;;;;;;20869005;28;20564;-40
2024/03/05 07:29:02;;;;;;;4.93;0.40;;;3.10;99.90;;;;;;20865875;28;20134;-40
2024/03/05 07:39:11;;;;;;;6.93;0.73;;;3.60;99.90;;;;;;20838922;28;21263;-40
2024/03/05 07:49:13;;;;;;;9.35;0.95;;;4.50;99.90;;;;;;20875125;28;20154;-40
2024/03/05 07:59:14;;;;;;;7.78;0.82;;;5.40;99.90;;;;;;20860851;28;21214;-41
2024/03/05 08:09:16;;;;;;;3.85;0.50;;;6.40;99.90;;;;;;20875207;28;20122;-40
2024/03/05 08:19:19;;;;;;;4.05;0.50;;;7.50;99.90;;;;;;20879629;28;20241;-41
2024/03/05 08:29:21;;;;;;;6.97;0.70;;;7.90;99.90;;;;;;20883043;28;20071;-41
2024/03/05 08:39:23;;;;;;;6.30;0.80;;;8.70;99.90;;;;;;20876380;28;20172;-45
2024/03/05 08:49:25;;;;;;;3.80;0.60;;;9.50;99.90;;;;;;20872291;28;20299;-43
2024/03/05 08:59:27;;;;;;;6.13;0.95;;;10.10;99.90;;;;;;20859932;28;20166;-44
2024/03/05 09:09:30;;;;;;;4.57;0.80;;;10.30;99.90;;;;;;20878038;28;21102;-42
2024/03/05 09:19:32;;;;;;;7.75;1.20;;;10.30;99.90;;;;;;20871708;28;21015;-43
2024/03/05 09:29:34;;;;;;;1.60;0.70;;;11.20;99.90;;;;;;20869970;28;20127;-41
2024/03/05 09:39:36;;;;;;;7.45;1.00;;;10.80;99.90;;;;;;20874843;28;20142;-41
2024/03/05 09:49:42;;;;;;;6.18;0.60;;;11.10;99.90;;;;;;20867098;28;20158;-41
2024/03/05 09:59:45;;;;;;;4.95;0.68;;;11.90;99.90;;;;;;20856722;28;20114;-42
2024/03/05 10:09:46;;;;;;;2.38;0.75;;;12.30;99.90;;;;;;20872855;28;20725;-41
2024/03/05 10:19:49;;;;;;;9.18;1.10;;;12.70;99.90;;;;;;20867000;28;20119;-41
2024/03/05 10:29:51;;;;;;;6.50;0.77;;;13.20;99.90;;;;;;20852933;28;20063;-42
2024/03/05 10:39:53;;;;;;;7.00;1.13;;;13.40;99.90;;;;;;20870709;28;21184;-45
2024/03/05 10:49:55;;;;;;;4.22;1.00;;;13.90;99.90;;;;;;20871181;28;20067;-41
2024/03/05 10:59:57;;;;;;;5.35;1.20;;;14.00;99.90;;;;;;20869801;28;20071;-41
2024/03/05 11:10:00;;;;;;;8.38;1.58;;;14.00;99.90;;;;;;20867343;28;20662;-43
2024/03/05 11:20:03;;;;;;;5.65;1.50;;;14.70;99.90;;;;;;20842073;28;20166;-41
2024/03/05 11:30:09;;;;;;;7.07;1.52;;;15.00;99.90;;;;;;20865552;28;22267;-41
2024/03/05 11:40:12;;;;;;;4.82;1.40;;;14.80;99.90;;;;;;20865517;28;20177;-41
2024/03/05 11:50:14;;;;;;;4.25;1.58;;;13.80;99.90;;;;;;20866555;28;20224;-42
2024/03/05 12:00:19;;;;;;;3.63;1.45;;;14.60;99.90;;;;;;20867051;28;20162;-41
2024/03/05 12:10:23;;;;;;;4.93;1.60;;;14.60;99.90;;;;;;20861312;28;20174;-41
2024/03/05 12:20:25;;;;;;;7.35;1.70;;;15.20;99.90;;;;;;20865520;28;20163;-41
2024/03/05 12:30:34;;;;;;;6.72;1.73;;;15.20;99.90;;;;;;20877529;28;21141;-42
2024/03/05 12:40:36;;;;;;;3.87;1.77;;;15.20;99.90;;;;;;20878942;28;20162;-41
2024/03/05 12:50:39;;;;;;;5.97;2.35;;;14.80;99.90;;;;;;20878031;28;20662;-41
2024/03/05 13:00:42;;;;;;;7.22;2.58;;;15.00;99.90;;;;;;20876861;28;20208;-41
2024/03/05 13:10:46;;;;;;;6.03;1.80;;;13.90;99.90;;;;;;20876342;28;20237;-41
2024/03/05 13:20:48;;;;;;;5.35;2.00;;;13.60;99.90;;;;;;20875185;28;20166;-42
2024/03/05 13:30:51;;;;;;;3.78;1.55;;;13.40;99.90;;;;;;20877373;28;20116;-41
2024/03/05 13:40:53;;;;;;;5.95;1.40;;;13.20;99.90;;;;;;20873294;28;20607;-42
2024/03/05 13:50:55;;;;;;;4.20;1.10;;;13.00;99.90;;;;;;20875777;28;20143;-41
2024/03/05 14:01:00;;;;;;;4.60;1.80;;;12.20;99.90;;;;;;20874091;28;20288;-41
2024/03/05 14:11:03;;;;;;;7.40;1.98;;;10.90;99.90;;;;;;20873581;28;20443;-41
2024/03/05 14:21:11;;;;;;;2.40;1.55;;;10.40;99.90;;;;;;20873174;28;20795;-40
2024/03/05 14:31:13;;;;;;;7.22;1.30;;;10.30;99.90;;;;;;20590366;28;20167;-42
2024/03/05 14:41:15;;;;;;;5.47;1.63;;;10.30;99.90;;;;;;20610041;28;20135;-40
2024/03/05 14:51:18;;;;;;;3.45;0.93;;;10.20;99.90;;;;;;20607592;28;20053;-40
2024/03/05 15:01:20;;;;;;;3.85;0.40;;;9.90;99.90;;;;;;20640906;28;21311;-41
2024/03/05 15:11:22;;;;;;;4.03;0.60;;;10.00;99.90;;;;;;20869460;28;20974;-43
2024/03/05 15:21:24;;;;;;;4.35;0.60;;;10.00;99.90;;;;;;20866789;28;20493;-42
2024/03/05 15:31:26;;;;;;;2.88;0.40;;;9.90;99.90;;;;;;20606260;28;20163;-40
2024/03/05 15:41:27;;;;;;;3.53;0.80;;;9.60;99.90;;;;;;20608558;28;20530;-40
2024/03/05 15:51:32;;;;;;;3.20;0.65;;;9.30;99.90;;;;;;20607096;28;20191;-40
2024/03/05 16:01:35;;;;;;;3.22;0.50;;;9.00;99.90;;;;;;20751850;28;21691;-40
2024/03/05 16:11:37;;;;;;;3.85;1.02;;;8.80;99.90;;;;;;20794679;28;20067;-40
2024/03/05 16:21:39;;;;;;;3.45;1.02;;;8.40;99.90;;;;;;20800209;28;20156;-40
2024/03/05 16:31:40;;;;;;;3.60;0.93;;;8.10;99.90;;;;;;20797708;28;20672;-40
2024/03/05 16:41:42;;;;;;;5.15;0.90;;;7.60;99.90;;;;;;20824926;28;20091;-41
2024/03/05 16:51:44;;;;;;;12.40;1.25;;;7.30;99.90;;;;;;20861051;28;20089;-40
2024/03/05 17:01:46;;;;;;;9.93;1.00;;;6.90;99.90;;;;;;20877695;28;20096;-40
2024/03/05 17:11:48;;;;;;;8.15;1.10;;;6.60;99.90;;;;;;20877553;28;20207;-39
2024/03/05 17:21:51;;;;;;;3.40;0.40;;;6.10;99.90;;;;;;20613581;28;20919;-40
2024/03/05 17:31:54;;;;;;;7.80;1.10;;;5.40;99.90;;;;;;20612322;28;20143;-40
2024/03/05 17:41:58;;;;;;;4.55;0.63;;;5.00;99.90;;;;;;20610877;28;20243;-40
2024/03/05 17:52:00;;;;;;;4.68;0.60;;;4.60;99.90;;;;;;20818582;28;20145;-40
2024/03/05 18:02:04;;;;;;;3.53;0.68;;;4.50;99.90;;;;;;20870548;28;20194;-40
2024/03/05 18:12:11;;;;;;;1.45;0.50;;;4.60;99.90;;;;;;20870909;28;20118;-40
2024/03/05 18:22:14;;;;;;;2.97;0.60;;;4.60;99.90;;;;;;20855477;28;20280;-42
2024/03/05 18:32:25;;;;;;;2.70;0.52;;;4.20;99.90;;;;;;20873631;28;20169;-41
2024/03/05 18:42:28;;;;;;;2.00;0.50;;;4.10;99.90;;;;;;20854007;28;20798;-41
2024/03/05 18:52:30;;;;;;;1.98;0.65;;;4.20;99.90;;;;;;20867692;28;20127;-42
2024/03/05 19:02:33;;;;;;;2.08;0.85;;;4.30;99.90;;;;;;20867257;28;20118;-41
2024/03/05 19:12:39;;;;;;;2.30;0.68;;;4.10;99.90;;;;;;20852048;28;20986;-43
2024/03/05 19:22:41;;;;;;;5.03;2.67;;;4.00;99.90;;;;;;20869676;28;20497;-40
2024/03/05 19:32:43;;;;;;;4.70;1.90;;;4.30;99.90;;;;;;20864002;28;20063;-41
2024/03/05 19:42:57;;;;;;;7.75;3.42;;;4.40;99.90;;;;;;20884377;28;20130;-41
2024/03/05 19:52:59;;;;;;;4.68;3.38;;;4.40;99.90;;;;;;20863898;28;20122;-42
2024/03/05 20:03:01;;;;;;;8.70;2.53;;;4.30;99.90;;;;;;20862045;28;20132;-42
2024/03/05 20:13:03;;;;;;;7.68;2.90;;;4.20;99.90;;;;;;20863495;28;20783;-40
2024/03/05 20:23:05;;;;;;;4.88;2.40;;;4.10;99.90;;;;;;20862367;28;20067;-40
2024/03/05 20:33:07;;;;;;;4.13;1.95;;;4.00;99.90;;;;;;20860764;28;21735;-43
2024/03/05 20:43:10;;;;;;;2.55;1.13;;;4.00;99.90;;;;;;20877572;28;20130;-41
2024/03/05 20:53:12;;;;;;;5.60;0.95;;;3.90;99.90;;;;;;20878570;28;20063;-41
2024/03/05 21:03:18;;;;;;;5.75;1.02;;;3.80;99.90;;;;;;20876252;28;21136;-43
2024/03/05 21:13:25;;;;;;;5.30;1.27;;;3.70;99.90;;;;;;20880942;28;20206;-41
2024/03/05 21:23:30;;;;;;;2.50;1.25;;;3.50;99.90;;;;;;20859330;28;20964;-41
2024/03/05 21:33:32;;;;;;;2.45;1.10;;;3.30;99.90;;;;;;20876022;28;20067;-40
2024/03/05 21:43:34;;;;;;;5.82;1.50;;;3.30;99.90;;;;;;20873384;28;20134;-41
2024/03/05 21:53:36;;;;;;;4.55;2.47;;;3.40;99.90;;;;;;20877294;28;20468;-40
2024/03/05 22:03:38;;;;;;;5.80;2.67;;;3.40;99.90;;;;;;20874224;28;20118;-42
2024/03/05 22:13:43;;;;;;;6.35;2.70;;;3.50;99.90;;;;;;20874346;28;20122;-42
2024/03/05 22:23:45;;;;;;;3.63;2.17;;;3.30;99.90;;;;;;20856494;28;20180;-41
2024/03/05 22:33:56;;;;;;;3.25;1.60;;;3.30;99.90;;;;;;20869951;28;20303;-45
2024/03/05 22:43:58;;;;;;;2.70;0.70;;;3.20;99.90;;;;;;20873060;28;21708;-43
2024/03/05 22:54:01;;;;;;;2.13;0.50;;;3.10;99.90;;;;;;20868231;28;20719;-42
2024/03/05 23:04:03;;;;;;;1.73;1.10;;;2.90;99.90;;;;;;20869981;28;20165;-41
2024/03/05 23:14:09;;;;;;;3.90;1.23;;;3.00;99.90;;;;;;20866583;28;20059;-40
2024/03/05 23:24:10;;;;;;;3.80;0.77;;;3.10;99.90;;;;;;20870481;28;21848;-41
2024/03/05 23:34:13;;;;;;;0.70;0.40;;;3.00;99.90;;;;;;20674259;28;20093;-43
2024/03/05 23:44:17;;;;;;;1.80;0.30;;;2.60;99.90;;;;;;20677824;28;20286;-41
2024/03/05 23:54:18;;;;;;;0.28;0.15;;;2.20;99.90;;;;;;20627795;28;20136;-40
